Time;durP1;ratioP1;P1;durP2;ratioP2;P2;SDS_P1;SDS_P2;PMS_P1;PMS_P2;Temp;Humidity;BMP_temperature;BMP_pressure;BME280_temperature;BME280_humidity;BME280_pressure;Samples;Min_cycle;Max_cycle;Signal;HPM_P1;HPM_P2
2022/07/11 00:01:46;;;;;;;7.20;3.50;;;;;;;15.86;75.96;102311.03;5070450;28;20479;-74
2022/07/11 00:04:12;;;;;;;5.45;3.10;;;;;;;15.82;75.47;102315.00;5090812;28;20516;-73
2022/07/11 00:06:37;;;;;;;6.15;3.10;;;;;;;15.77;76.27;102309.81;5090882;28;20051;-74
2022/07/11 00:09:02;;;;;;;5.10;3.47;;;;;;;15.69;76.14;102314.97;5084083;28;20455;-74
2022/07/11 00:11:29;;;;;;;6.57;3.40;;;;;;;15.69;75.62;102320.47;5070683;28;20048;-74
2022/07/11 00:13:55;;;;;;;6.30;2.90;;;;;;;15.65;75.61;102312.56;5070304;28;20059;-71
2022/07/11 00:16:20;;;;;;;7.40;3.28;;;;;;;15.66;75.96;102308.81;5068700;28;20097;-75
2022/07/11 00:18:46;;;;;;;8.30;4.75;;;;;;;15.67;76.75;102310.59;5069621;28;20037;-74
2022/07/11 00:21:11;;;;;;;6.40;3.60;;;;;;;15.65;75.59;102305.19;5070476;28;20040;-72
2022/07/11 00:23:37;;;;;;;4.95;3.47;;;;;;;15.69;75.75;102314.09;5069826;28;20120;-74
2022/07/11 00:26:03;;;;;;;7.78;3.67;;;;;;;15.66;76.08;102308.81;5070437;28;20070;-74
2022/07/11 00:28:28;;;;;;;7.28;4.10;;;;;;;15.50;76.76;102300.75;5082552;28;20064;-74
2022/07/11 00:30:54;;;;;;;6.30;3.95;;;;;;;15.46;76.32;102299.22;5070314;28;20077;-73
2022/07/11 00:33:20;;;;;;;5.53;3.88;;;;;;;15.42;75.56;102293.06;5082542;28;20039;-75
2022/07/11 00:35:45;;;;;;;7.93;4.10;;;;;;;15.37;77.38;102294.38;5084269;28;20101;-74
2022/07/11 00:38:11;;;;;;;8.82;4.55;;;;;;;15.36;78.05;102290.75;5068672;28;20031;-75
2022/07/11 00:40:36;;;;;;;10.30;5.28;;;;;;;15.36;77.92;102293.50;5069442;28;20082;-74
2022/07/11 00:43:05;;;;;;;7.25;3.45;;;;;;;15.35;76.35;102291.75;5070017;28;20044;-74
2022/07/11 00:45:31;;;;;;;5.65;3.50;;;;;;;15.28;76.69;102293.13;5070227;28;20379;-74
2022/07/11 00:47:56;;;;;;;6.53;3.92;;;;;;;15.32;75.85;102292.81;5074217;28;20040;-74
2022/07/11 00:50:22;;;;;;;7.47;4.00;;;;;;;15.28;76.90;102298.63;5070033;28;20124;-74
2022/07/11 00:52:50;;;;;;;8.25;3.75;;;;;;;15.27;76.63;102288.66;5069811;28;20476;-74
2022/07/11 00:55:15;;;;;;;6.25;4.07;;;;;;;15.23;76.46;102295.31;5068497;28;20040;-74
2022/07/11 00:57:42;;;;;;;8.82;3.72;;;;;;;15.20;76.02;102290.94;5069636;28;20086;-75
2022/07/11 01:00:08;;;;;;;5.53;3.80;;;;;;;15.17;76.69;102287.53;5069218;28;20029;-75
2022/07/11 01:02:34;;;;;;;6.50;3.85;;;;;;;15.11;77.04;102285.19;5083673;28;20052;-73
2022/07/11 01:04:59;;;;;;;8.45;3.85;;;;;;;15.09;76.49;102281.69;5090106;28;20051;-73
2022/07/11 01:07:25;;;;;;;6.55;4.53;;;;;;;15.05;76.97;102286.50;5073922;28;20128;-73
2022/07/11 01:09:50;;;;;;;9.10;4.85;;;;;;;14.95;78.17;102280.75;5069138;28;20040;-73
2022/07/11 01:12:17;;;;;;;9.32;4.40;;;;;;;14.91;78.15;102287.44;5085067;28;20041;-74
2022/07/11 01:14:52;;;;;;;9.38;4.57;;;;;;;14.89;78.16;102291.28;5069032;28;20151;-74
2022/07/11 01:17:18;;;;;;;9.52;4.97;;;;;;;14.83;78.32;102287.09;5068199;28;20094;-74
2022/07/11 01:19:44;;;;;;;7.93;4.13;;;;;;;14.85;77.90;102284.25;5069359;28;20028;-74
2022/07/11 01:22:10;;;;;;;8.95;4.18;;;;;;;14.86;78.43;102278.66;5067970;28;20068;-74
2022/07/11 01:24:36;;;;;;;10.60;4.53;;;;;;;14.82;78.98;102279.84;5067343;28;20043;-70
2022/07/11 01:27:01;;;;;;;7.70;4.40;;;;;;;14.75;78.32;102284.00;5069828;28;20036;-74
2022/07/11 01:29:27;;;;;;;14.10;4.47;;;;;;;14.70;80.55;102280.69;5068450;28;20081;-74
2022/07/11 01:31:52;;;;;;;7.80;4.65;;;;;;;14.64;79.40;102283.81;5068394;28;20032;-74
2022/07/11 01:34:17;;;;;;;8.25;4.57;;;;;;;14.63;79.29;102282.06;5089319;28;20111;-74
2022/07/11 01:36:43;;;;;;;7.75;4.82;;;;;;;14.64;79.64;102290.19;5089320;28;20035;-74
2022/07/11 01:39:08;;;;;;;14.48;6.00;;;;;;;14.61;79.27;102287.66;5074625;28;20032;-74
2022/07/11 01:41:33;;;;;;;8.73;4.30;;;;;;;14.57;78.79;102277.00;5068568;28;20032;-68
2022/07/11 01:43:59;;;;;;;10.23;3.72;;;;;;;14.51;78.91;102287.38;5069251;28;20020;-73
2022/07/11 01:46:24;;;;;;;7.10;3.88;;;;;;;14.45;79.92;102284.13;5068484;28;20371;-73
2022/07/11 01:48:50;;;;;;;7.97;4.25;;;;;;;14.42;79.86;102287.06;5068531;28;20475;-74
2022/07/11 01:51:15;;;;;;;8.25;4.32;;;;;;;14.39;79.86;102292.75;5068184;28;20043;-73
2022/07/11 01:53:40;;;;;;;6.43;4.25;;;;;;;14.41;78.23;102298.97;5050748;28;20043;-74
2022/07/11 01:56:06;;;;;;;7.00;4.05;;;;;;;14.40;78.27;102298.09;5068452;28;20116;-74
2022/07/11 01:58:31;;;;;;;7.03;4.55;;;;;;;14.41;78.26;102294.41;5068548;28;20043;-74
2022/07/11 02:00:58;;;;;;;8.25;4.78;;;;;;;14.39;79.03;102293.63;5068513;28;20028;-74
2022/07/11 02:03:23;;;;;;;9.18;4.20;;;;;;;14.40;78.62;102292.63;5081196;28;20043;-73
2022/07/11 02:05:48;;;;;;;7.88;3.88;;;;;;;14.42;78.51;102298.91;5070269;28;20052;-72
2022/07/11 02:08:14;;;;;;;9.63;4.53;;;;;;;14.43;79.45;102297.91;5076822;28;20033;-74
2022/07/11 02:10:45;;;;;;;9.68;4.70;;;;;;;14.48;78.94;102303.13;5068337;28;20336;-74
2022/07/11 02:13:12;;;;;;;10.07;4.45;;;;;;;14.50;79.43;102301.16;5068208;28;20666;-74
2022/07/11 02:15:39;;;;;;;7.97;5.00;;;;;;;14.53;79.79;102295.47;5068584;28;20097;-73
2022/07/11 02:18:05;;;;;;;11.88;4.68;;;;;;;14.56;79.84;102291.69;5067899;28;20131;-72
2022/07/11 02:20:30;;;;;;;7.05;4.95;;;;;;;14.57;80.83;102290.69;5084446;28;20119;-73
2022/07/11 02:22:56;;;;;;;7.53;4.55;;;;;;;14.58;81.04;102282.34;5068639;28;20036;-73
2022/07/11 02:25:22;;;;;;;8.38;4.60;;;;;;;14.59;80.29;102292.31;5073366;28;20028;-74
2022/07/11 02:27:51;;;;;;;5.63;4.40;;;;;;;14.62;79.76;102285.78;5067912;28;20036;-69
2022/07/11 02:30:16;;;;;;;6.20;4.63;;;;;;;14.64;79.79;102283.81;5068338;28;20029;-73
2022/07/11 02:32:42;;;;;;;9.13;4.05;;;;;;;14.61;80.27;102284.03;5075182;28;20110;-73
2022/07/11 02:35:07;;;;;;;5.50;4.45;;;;;;;14.62;80.67;102280.31;5088635;28;20028;-73
2022/07/11 02:37:33;;;;;;;6.95;4.15;;;;;;;14.65;80.50;102282.84;5087662;28;20455;-74
2022/07/11 02:39:58;;;;;;;6.05;4.65;;;;;;;14.67;80.54;102281.75;5075932;28;20016;-73
2022/07/11 02:42:24;;;;;;;8.75;4.65;;;;;;;14.72;80.14;102278.69;5069824;28;20044;-74
2022/07/11 02:44:49;;;;;;;10.85;5.80;;;;;;;14.80;80.98;102279.06;5073484;28;20040;-74
2022/07/11 02:47:14;;;;;;;6.35;4.40;;;;;;;14.83;80.93;102283.44;5072037;28;20086;-74
2022/07/11 02:49:40;;;;;;;7.55;5.18;;;;;;;14.83;81.58;102287.09;5074251;28;20336;-73
2022/07/11 02:52:06;;;;;;;8.25;5.65;;;;;;;14.86;81.96;102288.72;5090951;28;20062;-74
2022/07/11 02:54:31;;;;;;;7.82;5.25;;;;;;;14.93;80.97;102285.50;5089560;28;20040;-74
2022/07/11 02:56:57;;;;;;;10.15;5.40;;;;;;;14.96;81.46;102281.63;5070740;28;20036;-73
2022/07/11 02:59:22;;;;;;;9.93;5.65;;;;;;;14.95;81.64;102282.63;5071780;28;20025;-74
2022/07/11 03:01:48;;;;;;;11.88;5.82;;;;;;;14.96;82.02;102277.03;5070662;28;20117;-74
2022/07/11 03:04:14;;;;;;;16.55;5.40;;;;;;;14.96;81.84;102270.69;5091715;28;20093;-74
2022/07/11 03:06:39;;;;;;;14.38;6.35;;;;;;;15.00;81.72;102275.84;5091968;28;20079;-74
2022/07/11 03:09:06;;;;;;;9.30;5.78;;;;;;;15.00;82.52;102274.97;5077847;28;20035;-73
2022/07/11 03:11:32;;;;;;;9.63;6.50;;;;;;;15.04;82.66;102277.41;5071668;28;20162;-74
2022/07/11 03:13:57;;;;;;;10.35;6.32;;;;;;;15.04;81.89;102282.88;5071053;28;20123;-73
2022/07/11 03:16:23;;;;;;;10.23;7.32;;;;;;;15.09;82.32;102284.44;5070967;28;20514;-74
2022/07/11 03:18:49;;;;;;;13.07;6.03;;;;;;;15.08;82.83;102278.06;5069514;28;20045;-74
2022/07/11 03:21:14;;;;;;;10.52;5.65;;;;;;;15.08;82.36;102286.28;5071672;28;20550;-74
2022/07/11 03:23:40;;;;;;;8.65;5.80;;;;;;;15.11;82.96;102287.94;5081935;28;20157;-72
2022/07/11 03:26:05;;;;;;;12.38;6.18;;;;;;;15.16;82.89;102283.03;5078990;28;20041;-73
2022/07/11 03:28:31;;;;;;;11.77;6.25;;;;;;;15.14;83.67;102295.97;5071169;28;20020;-74
2022/07/11 03:30:56;;;;;;;9.02;5.70;;;;;;;15.18;82.39;102294.75;5071245;28;20081;-74
2022/07/11 03:33:21;;;;;;;7.35;5.70;;;;;;;15.19;83.28;102289.16;5083727;28;20026;-74
2022/07/11 03:35:47;;;;;;;9.15;5.68;;;;;;;15.18;83.49;102292.03;5091519;28;20090;-74
2022/07/11 03:38:17;;;;;;;8.05;5.50;;;;;;;15.15;83.57;102292.22;5090018;28;20433;-74
2022/07/11 03:40:42;;;;;;;10.02;5.30;;;;;;;15.18;83.06;102294.75;5084012;28;20138;-73
2022/07/11 03:43:08;;;;;;;13.00;6.00;;;;;;;15.23;83.10;102293.47;5070398;28;20115;-73
2022/07/11 03:45:34;;;;;;;9.88;5.70;;;;;;;15.25;82.73;102294.25;5071229;28;20048;-69
2022/07/11 03:47:59;;;;;;;13.48;6.50;;;;;;;15.27;82.97;102292.25;5070742;28;20032;-72
2022/07/11 03:50:25;;;;;;;8.05;6.20;;;;;;;15.32;82.69;102291.94;5069676;28;20078;-73
2022/07/11 03:52:50;;;;;;;8.98;5.75;;;;;;;15.35;83.12;102289.00;5070408;28;20036;-73
2022/07/11 03:55:15;;;;;;;8.68;5.93;;;;;;;15.38;82.88;102288.78;5069429;28;20078;-74
2022/07/11 03:57:41;;;;;;;9.95;6.18;;;;;;;15.35;84.06;102286.25;5076873;28;20054;-73
2022/07/11 04:00:09;;;;;;;9.00;5.50;;;;;;;15.37;82.73;102292.50;5070028;28;20028;-74
2022/07/11 04:02:35;;;;;;;9.55;6.05;;;;;;;15.42;83.81;102292.19;5074946;28;20036;-74
2022/07/11 04:05:02;;;;;;;12.88;6.10;;;;;;;15.39;83.87;102293.28;5089825;28;20024;-74
2022/07/11 04:07:28;;;;;;;11.95;6.22;;;;;;;15.37;83.74;102289.75;5090732;28;20818;-73
2022/07/11 04:09:54;;;;;;;13.25;6.20;;;;;;;15.42;83.22;102294.94;5084259;28;20499;-74
2022/07/11 04:12:19;;;;;;;12.65;6.68;;;;;;;15.48;83.01;102287.16;5070608;28;20487;-73
2022/07/11 04:14:45;;;;;;;10.40;6.80;;;;;;;15.50;84.13;102284.31;5068380;28;20048;-73
2022/07/11 04:17:10;;;;;;;9.30;6.32;;;;;;;15.52;83.02;102285.06;5069110;28;20100;-72
2022/07/11 04:19:36;;;;;;;7.60;5.93;;;;;;;15.56;82.48;102281.13;5069191;28;20044;-73
2022/07/11 04:22:01;;;;;;;13.10;6.93;;;;;;;15.58;84.16;102292.88;5070665;28;20037;-74
2022/07/11 04:24:27;;;;;;;13.23;8.05;;;;;;;15.57;83.26;102292.00;5069886;28;20052;-74
2022/07/11 04:26:52;;;;;;;12.80;6.70;;;;;;;15.62;82.15;102299.00;5070403;28;20044;-74
2022/07/11 04:29:17;;;;;;;14.77;7.90;;;;;;;15.64;83.04;102291.59;5076476;28;20119;-75
2022/07/11 04:31:43;;;;;;;10.65;7.60;;;;;;;15.63;84.09;102292.56;5069703;28;20407;-74
2022/07/11 04:34:08;;;;;;;10.63;7.68;;;;;;;15.66;83.63;102293.22;5089954;28;20742;-73
2022/07/11 04:36:34;;;;;;;11.65;7.40;;;;;;;15.67;82.99;102292.25;5089143;28;20513;-68
2022/07/11 04:38:59;;;;;;;12.05;7.70;;;;;;;15.71;82.98;102295.66;5090581;28;20065;-74
2022/07/11 04:41:24;;;;;;;13.38;7.72;;;;;;;15.74;82.96;102293.56;5084244;28;20045;-73
2022/07/11 04:43:50;;;;;;;11.20;6.90;;;;;;;15.77;82.52;102298.84;5069509;28;20035;-73
2022/07/11 04:46:15;;;;;;;15.80;7.45;;;;;;;15.81;82.92;102296.78;5089814;28;20035;-68
2022/07/11 04:48:40;;;;;;;11.65;7.50;;;;;;;15.83;82.81;102300.28;5069451;28;20032;-74
2022/07/11 04:51:06;;;;;;;13.20;7.43;;;;;;;15.87;82.06;102306.44;5069789;28;20109;-74
2022/07/11 04:53:33;;;;;;;13.10;7.80;;;;;;;15.91;82.29;102308.84;5070232;28;20028;-74
2022/07/11 04:55:59;;;;;;;13.07;7.55;;;;;;;15.91;81.92;102311.59;5067659;28;20448;-74
2022/07/11 04:58:24;;;;;;;13.55;6.63;;;;;;;15.96;81.87;102316.75;5068617;28;20036;-71
2022/07/11 05:00:51;;;;;;;15.00;6.68;;;;;;;15.99;82.30;102314.66;5069697;28;20396;-74
2022/07/11 05:03:16;;;;;;;13.38;7.18;;;;;;;16.01;82.28;102309.94;5081285;28;20436;-74
2022/07/11 05:05:42;;;;;;;10.95;7.00;;;;;;;16.04;82.71;102322.53;5089709;28;20051;-74
2022/07/11 05:08:08;;;;;;;11.20;7.72;;;;;;;16.04;82.63;102319.78;5089709;28;20055;-71
2022/07/11 05:10:36;;;;;;;10.77;7.30;;;;;;;16.01;82.42;102318.16;5082305;28;20365;-74
2022/07/11 05:13:01;;;;;;;11.27;7.03;;;;;;;16.02;82.46;102322.66;5069296;28;20051;-72
2022/07/11 05:15:27;;;;;;;9.35;7.10;;;;;;;16.06;82.34;102315.09;5069284;28;20028;-73
2022/07/11 05:17:53;;;;;;;11.48;7.88;;;;;;;16.09;83.05;102317.63;5068331;28;20043;-74
2022/07/11 05:20:18;;;;;;;13.65;7.00;;;;;;;16.12;82.57;102327.50;5069759;28;20081;-73
2022/07/11 05:22:43;;;;;;;10.02;6.50;;;;;;;16.13;81.84;102321.88;5072505;28;20429;-74
2022/07/11 05:25:09;;;;;;;9.82;6.95;;;;;;;16.17;82.89;102322.53;5084022;28;20317;-74
2022/07/11 05:27:34;;;;;;;9.68;6.38;;;;;;;16.17;82.59;102326.16;5069235;28;20021;-73
2022/07/11 05:30:00;;;;;;;17.58;7.35;;;;;;;16.18;84.19;102338.94;5069023;28;20098;-74
2022/07/11 05:32:25;;;;;;;13.02;7.15;;;;;;;16.19;83.07;102328.81;5073875;28;20394;-73
2022/07/11 05:34:51;;;;;;;14.13;6.43;;;;;;;16.24;83.03;102327.50;5089257;28;20150;-73
2022/07/11 05:37:16;;;;;;;10.13;6.95;;;;;;;16.26;82.81;102331.00;5089231;28;20157;-74
2022/07/11 05:39:42;;;;;;;10.05;6.65;;;;;;;16.30;82.84;102332.53;5072689;28;20075;-73
2022/07/11 05:42:07;;;;;;;13.05;7.07;;;;;;;16.34;82.60;102333.19;5069200;28;20037;-74
2022/07/11 05:44:33;;;;;;;12.75;7.00;;;;;;;16.35;82.94;102340.44;5068934;28;20067;-72
2022/07/11 05:47:00;;;;;;;11.23;6.68;;;;;;;16.37;82.91;102332.97;5081505;28;20059;-73
2022/07/11 05:49:25;;;;;;;12.05;7.43;;;;;;;16.41;83.78;102347.34;5067484;28;20028;-74
2022/07/11 05:51:51;;;;;;;11.57;6.97;;;;;;;16.43;82.24;102343.50;5068797;28;20487;-74
2022/07/11 05:54:16;;;;;;;10.15;6.57;;;;;;;16.43;82.91;102337.13;5068655;28;20040;-72
2022/07/11 05:56:42;;;;;;;11.15;6.15;;;;;;;16.47;82.56;102339.53;5068476;28;20017;-73
2022/07/11 05:59:08;;;;;;;18.55;6.32;;;;;;;16.45;82.47;102344.25;5082601;28;20185;-74
2022/07/11 06:01:34;;;;;;;8.98;4.97;;;;;;;16.46;82.67;102345.13;5068192;28;20046;-71
2022/07/11 06:04:00;;;;;;;11.45;5.70;;;;;;;16.48;82.09;102344.03;5087435;28;20458;-73
2022/07/11 06:06:25;;;;;;;16.20;5.57;;;;;;;16.47;83.13;102344.16;5088703;28;20066;-74
2022/07/11 06:08:50;;;;;;;7.22;5.38;;;;;;;16.45;82.72;102343.38;5074130;28;20036;-72
2022/07/11 06:11:16;;;;;;;9.10;6.15;;;;;;;16.46;83.55;102351.53;5068040;28;20028;-74
2022/07/11 06:13:44;;;;;;;9.30;6.18;;;;;;;16.43;83.40;102357.25;5067731;28;20147;-74
2022/07/11 06:16:10;;;;;;;10.02;5.20;;;;;;;16.43;82.21;102350.88;5070768;28;20035;-73
2022/07/11 06:18:36;;;;;;;7.32;4.95;;;;;;;16.43;82.99;102353.63;5076631;28;20020;-72
2022/07/11 06:21:02;;;;;;;11.25;5.05;;;;;;;16.40;84.04;102357.44;5065702;28;20043;-73
2022/07/11 06:23:28;;;;;;;7.15;4.25;;;;;;;16.42;82.66;102360.97;5066605;28;20506;-73
2022/07/11 06:25:55;;;;;;;8.68;4.82;;;;;;;16.44;82.56;102358.13;5065179;28;20048;-72
2022/07/11 06:28:20;;;;;;;7.25;4.55;;;;;;;16.50;81.90;102355.78;5068716;28;20024;-74
2022/07/11 06:30:46;;;;;;;5.25;4.38;;;;;;;16.48;82.28;102357.78;5079552;28;20092;-74
2022/07/11 06:33:11;;;;;;;7.72;3.88;;;;;;;16.53;81.92;102354.69;5072861;28;20345;-74
2022/07/11 06:35:37;;;;;;;6.90;3.92;;;;;;;16.56;82.50;102368.22;5067839;28;20040;-73
2022/07/11 06:38:02;;;;;;;5.50;3.85;;;;;;;16.59;83.13;102363.34;5067758;28;20036;-74
2022/07/11 06:40:28;;;;;;;5.68;3.80;;;;;;;16.65;81.30;102359.28;5067800;28;20024;-73
2022/07/11 06:42:54;;;;;;;7.38;4.10;;;;;;;16.68;82.01;102361.78;5075946;28;20036;-73
2022/07/11 06:45:19;;;;;;;8.75;4.50;;;;;;;16.74;82.93;102364.16;5071323;28;20025;-74
2022/07/11 06:47:44;;;;;;;5.40;4.00;;;;;;;16.83;80.73;102366.22;5075017;28;20036;-74
2022/07/11 06:50:10;;;;;;;6.45;3.70;;;;;;;16.86;81.19;102356.84;5080098;28;20098;-70
2022/07/11 06:52:35;;;;;;;7.13;4.20;;;;;;;16.81;80.63;102353.56;5086552;28;20420;-74
2022/07/11 06:55:01;;;;;;;7.20;4.18;;;;;;;16.86;81.89;102350.47;5081424;28;20042;-72
2022/07/11 06:57:26;;;;;;;4.13;3.38;;;;;;;16.86;80.15;102354.09;5082991;28;20043;-73
2022/07/11 06:59:52;;;;;;;4.93;3.80;;;;;;;16.92;80.61;102348.13;5077196;28;20036;-72
2022/07/11 07:02:17;;;;;;;7.68;4.20;;;;;;;17.04;80.13;102347.19;5077749;28;20038;-74
2022/07/11 07:04:43;;;;;;;5.78;3.78;;;;;;;17.16;81.13;102347.25;5067550;28;20028;-74
2022/07/11 07:07:08;;;;;;;5.90;4.18;;;;;;;17.31;80.55;102352.47;5067313;28;20058;-71
2022/07/11 07:09:33;;;;;;;5.93;4.05;;;;;;;17.46;79.55;102349.53;5067493;28;20448;-67
2022/07/11 07:11:59;;;;;;;5.90;4.10;;;;;;;17.56;79.77;102340.44;5067566;28;20028;-73
2022/07/11 07:14:24;;;;;;;5.63;3.90;;;;;;;17.71;79.65;102348.47;5067383;28;20032;-73
2022/07/11 07:16:49;;;;;;;6.57;4.10;;;;;;;17.75;79.30;102350.03;5066128;28;20058;-73
2022/07/11 07:19:15;;;;;;;9.65;4.63;;;;;;;17.74;77.53;102348.28;5066887;28;20025;-73
2022/07/11 07:21:40;;;;;;;6.68;4.25;;;;;;;17.88;78.10;102344.44;5066892;28;20017;-72
2022/07/11 07:24:06;;;;;;;5.57;3.92;;;;;;;17.97;77.05;102350.09;5066675;28;20036;-73
2022/07/11 07:26:32;;;;;;;4.97;3.55;;;;;;;18.10;76.97;102334.34;5066393;28;20031;-74
2022/07/11 07:28:58;;;;;;;5.80;3.75;;;;;;;18.21;75.53;102338.09;5072883;28;20518;-74
2022/07/11 07:31:24;;;;;;;5.95;4.20;;;;;;;18.31;76.24;102341.84;5090215;28;20135;-71
2022/07/11 07:33:50;;;;;;;4.70;4.03;;;;;;;18.39;75.49;102335.72;5073638;28;20044;-73
2022/07/11 07:36:15;;;;;;;6.63;3.53;;;;;;;18.47;75.40;102341.50;5069745;28;20123;-74
2022/07/11 07:38:43;;;;;;;5.85;3.67;;;;;;;18.54;74.58;102335.34;5069271;28;20377;-72
2022/07/11 07:41:09;;;;;;;4.88;3.80;;;;;;;18.70;75.18;102339.59;5071134;28;20037;-74
2022/07/11 07:43:35;;;;;;;7.10;3.30;;;;;;;18.79;75.89;102336.06;5085033;28;20044;-73
2022/07/11 07:46:00;;;;;;;4.07;3.20;;;;;;;18.98;73.97;102344.59;5071871;28;20032;-73
2022/07/11 07:48:25;;;;;;;5.90;3.95;;;;;;;19.12;73.28;102346.19;5068836;28;20077;-74
2022/07/11 07:50:51;;;;;;;5.85;3.67;;;;;;;19.23;73.44;102348.00;5071233;28;20407;-73
2022/07/11 07:53:16;;;;;;;6.03;3.92;;;;;;;19.21;73.05;102353.69;5071213;28;20024;-73
2022/07/11 07:55:41;;;;;;;6.07;4.13;;;;;;;19.33;71.16;102343.44;5070474;28;20111;-73
2022/07/11 07:58:07;;;;;;;6.32;4.13;;;;;;;19.36;70.78;102348.72;5079720;28;20086;-73
2022/07/11 08:03:16;;;;;;;7.10;4.07;;;;;;;19.57;71.16;102351.50;5083024;28;20686;-71
2022/07/11 08:05:41;;;;;;;5.88;4.20;;;;;;;19.55;70.78;102361.81;5091292;28;20061;-71
2022/07/11 08:08:07;;;;;;;5.57;4.10;;;;;;;19.52;70.63;102359.31;5075297;28;20060;-72
2022/07/11 08:10:32;;;;;;;6.68;3.80;;;;;;;19.62;70.76;102360.28;5057695;28;20059;-71
2022/07/11 08:12:57;;;;;;;5.10;3.70;;;;;;;19.44;71.45;102356.31;5090175;28;20106;-72
2022/07/11 08:15:23;;;;;;;5.85;3.50;;;;;;;19.40;71.05;102365.88;5069055;28;20391;-72
2022/07/11 08:17:48;;;;;;;5.40;3.40;;;;;;;19.38;71.07;102358.59;5068860;28;20106;-72
2022/07/11 08:20:14;;;;;;;5.18;3.83;;;;;;;19.31;70.18;102362.91;5070175;28;20032;-73
2022/07/11 08:22:40;;;;;;;4.90;3.45;;;;;;;19.36;71.70;102362.53;5069288;28;20066;-72
2022/07/11 08:25:06;;;;;;;6.38;3.45;;;;;;;19.34;71.11;102368.16;5068449;28;20040;-72
2022/07/11 08:27:31;;;;;;;4.05;3.08;;;;;;;19.48;71.38;102355.94;5070678;28;20403;-72
2022/07/11 08:29:58;;;;;;;6.53;3.70;;;;;;;19.65;70.56;102360.03;5068117;28;20029;-71
2022/07/11 08:32:24;;;;;;;10.48;4.25;;;;;;;19.76;70.31;102356.31;5068553;28;20123;-72
2022/07/11 08:34:49;;;;;;;5.72;4.07;;;;;;;19.97;70.31;102362.75;5066272;28;20411;-72
2022/07/11 08:37:15;;;;;;;5.80;4.32;;;;;;;20.27;71.93;102364.66;5069010;28;20040;-72
2022/07/11 08:39:40;;;;;;;5.72;4.53;;;;;;;20.20;67.56;102357.06;5068303;28;20040;-70
2022/07/11 08:42:06;;;;;;;12.27;4.15;;;;;;;20.31;68.25;102360.59;5068716;28;20029;-72
2022/07/11 08:44:33;;;;;;;5.88;4.43;;;;;;;20.63;69.02;102368.78;5069329;28;20035;-71
2022/07/11 08:46:58;;;;;;;8.20;4.88;;;;;;;20.80;68.30;102352.56;5068949;28;20048;-72
2022/07/11 08:49:25;;;;;;;5.25;4.43;;;;;;;20.84;67.73;102363.19;5085262;28;20025;-72
2022/07/11 08:51:51;;;;;;;7.20;4.45;;;;;;;20.85;67.57;102359.41;5069690;28;20094;-71
2022/07/11 08:54:16;;;;;;;6.85;4.55;;;;;;;20.91;68.01;102362.63;5069098;28;20440;-71
2022/07/11 08:56:55;;;;;;;10.60;5.07;;;;;;;21.04;67.33;102374.31;5069147;28;20079;-72
2022/07/11 08:59:22;;;;;;;8.00;4.97;;;;;;;21.22;65.94;102358.75;5068940;28;20403;-71
2022/07/11 09:01:51;;;;;;;7.13;4.68;;;;;;;21.47;65.98;102357.34;5073476;28;20356;-72
2022/07/11 09:04:17;;;;;;;7.78;4.88;;;;;;;21.60;65.53;102360.69;5068637;28;20041;-72
2022/07/11 09:06:42;;;;;;;6.03;5.03;;;;;;;21.79;64.76;102351.50;5068237;28;20425;-71
2022/07/11 09:09:08;;;;;;;9.35;5.00;;;;;;;21.91;64.55;102352.19;5069334;28;20062;-72
2022/07/11 09:11:52;;;;;;;8.68;5.53;;;;;;;22.21;65.25;102353.94;5069503;28;20464;-72
2022/07/11 09:14:23;;;;;;;11.20;5.63;;;;;;;22.34;63.39;102356.38;5069184;28;20085;-72
2022/07/11 09:16:58;;;;;;;8.50;5.50;;;;;;;22.21;62.77;102351.16;5068036;28;20086;-72
2022/07/11 09:19:24;;;;;;;7.47;5.85;;;;;;;22.07;62.08;102354.38;5069842;28;20040;-72
2022/07/11 09:25:25;;;;;;;10.35;6.03;;;;;;;21.87;63.36;102356.31;5067775;28;20479;-69
2022/07/11 09:27:51;;;;;;;13.55;6.28;;;;;;;21.53;63.24;102353.97;5071146;28;20438;-71
2022/07/11 09:30:27;;;;;;;8.60;5.80;;;;;;;21.36;64.86;102347.28;5079399;28;20032;-72
2022/07/11 09:33:09;;;;;;;9.48;5.63;;;;;;;21.24;65.57;102348.41;5075174;28;20411;-71
2022/07/11 09:35:37;;;;;;;9.02;5.13;;;;;;;21.00;65.96;102357.13;5069161;28;20052;-72
2022/07/11 09:38:10;;;;;;;9.40;5.43;;;;;;;20.73;65.37;102352.22;5068847;28;20043;-71
2022/07/11 09:40:36;;;;;;;13.00;5.35;;;;;;;20.45;67.72;102348.31;5068527;28;20040;-72
2022/07/11 09:43:03;;;;;;;8.63;5.10;;;;;;;20.34;67.37;102352.03;5068571;28;20039;-70
2022/07/11 09:45:30;;;;;;;8.48;5.93;;;;;;;20.21;66.52;102345.88;5068730;28;20047;-72
2022/07/11 09:47:58;;;;;;;11.85;5.60;;;;;;;20.49;67.93;102348.94;5067806;28;20128;-72
2022/07/11 09:50:30;;;;;;;6.35;5.00;;;;;;;21.12;66.49;102350.44;5073770;28;20043;-72
2022/07/11 09:53:09;;;;;;;9.18;4.90;;;;;;;21.58;66.98;102348.88;5088507;28;20032;-71
2022/07/11 09:55:50;;;;;;;8.48;5.45;;;;;;;21.89;65.00;102352.34;5082025;28;20040;-71
2022/07/11 09:58:16;;;;;;;9.30;5.10;;;;;;;21.88;62.80;102349.75;5068159;28;20122;-72
2022/07/11 10:00:44;;;;;;;6.47;4.88;;;;;;;21.91;63.72;102350.28;5067555;28;20182;-72
2022/07/11 10:03:11;;;;;;;9.05;5.55;;;;;;;21.99;62.88;102345.91;5078990;28;20040;-72
2022/07/11 10:05:37;;;;;;;9.32;5.38;;;;;;;22.15;63.51;102352.63;5088913;28;20078;-71
2022/07/11 10:08:04;;;;;;;8.77;5.47;;;;;;;22.35;62.95;102352.56;5087123;28;20028;-72
2022/07/11 10:10:31;;;;;;;6.95;4.85;;;;;;;22.42;62.49;102348.16;5068897;28;20040;-71
2022/07/11 10:12:57;;;;;;;8.88;4.80;;;;;;;22.53;62.59;102347.97;5068821;28;20495;-72
2022/07/11 10:15:32;;;;;;;8.40;4.63;;;;;;;22.48;62.58;102352.22;5067760;28;20094;-72
2022/07/11 10:18:15;;;;;;;9.93;4.57;;;;;;;22.39;62.58;102352.13;5067408;28;20044;-71
2022/07/11 10:20:46;;;;;;;7.88;5.15;;;;;;;22.27;60.73;102347.75;5068168;28;20119;-71
2022/07/11 10:23:25;;;;;;;7.20;4.53;;;;;;;21.91;61.07;102352.19;5068026;28;20056;-71
2022/07/11 10:26:08;;;;;;;7.60;5.22;;;;;;;21.44;64.01;102351.22;5067631;28;20048;-71
2022/07/11 10:28:37;;;;;;;11.18;5.13;;;;;;;21.56;65.39;102356.47;5067562;28;20028;-68
2022/07/11 10:31:03;;;;;;;5.50;4.63;;;;;;;21.62;64.48;102363.31;5069065;28;20844;-70
2022/07/11 10:33:29;;;;;;;5.43;3.92;;;;;;;21.43;63.10;102363.31;5081059;28;20131;-70
2022/07/11 10:35:55;;;;;;;5.00;3.30;;;;;;;21.28;62.94;102363.72;5075087;28;20059;-72
2022/07/11 10:38:23;;;;;;;4.05;3.60;;;;;;;21.29;64.85;102364.59;5067968;28;20047;-72
2022/07/11 10:40:51;;;;;;;5.03;3.42;;;;;;;21.46;64.38;102366.69;5068238;28;20124;-71
2022/07/11 10:43:22;;;;;;;5.53;3.78;;;;;;;21.46;63.88;102368.56;5067616;28;20060;-70
2022/07/11 10:46:01;;;;;;;4.95;3.80;;;;;;;21.48;65.30;102366.53;5067025;28;20044;-71
2022/07/11 10:48:29;;;;;;;5.28;3.42;;;;;;;21.45;64.90;102372.34;5068526;28;20032;-72
2022/07/11 10:51:22;;;;;;;6.50;3.47;;;;;;;21.55;64.91;102374.13;5067713;28;20066;-71
2022/07/11 10:53:50;;;;;;;6.53;3.83;;;;;;;21.28;64.27;102374.78;5065964;28;20108;-71
2022/07/11 10:56:45;;;;;;;5.72;3.65;;;;;;;21.13;65.94;102368.78;5072708;28;20571;-71
2022/07/11 10:59:16;;;;;;;4.07;3.28;;;;;;;20.89;65.59;102366.41;5076852;28;20340;-70
2022/07/11 11:02:03;;;;;;;5.25;3.88;;;;;;;20.85;65.92;102366.84;5067324;28;20095;-71
2022/07/11 11:04:52;;;;;;;5.18;3.35;;;;;;;20.91;66.52;102370.94;5071814;28;20139;-71
2022/07/11 11:07:27;;;;;;;3.80;3.30;;;;;;;21.08;66.56;102365.59;5071964;28;20048;-70
2022/07/11 11:09:52;;;;;;;3.15;2.85;;;;;;;21.21;65.58;102362.53;5071324;28;20036;-70
2022/07/11 11:12:17;;;;;;;5.57;3.40;;;;;;;21.36;63.66;102369.44;5072055;28;20387;-70
2022/07/11 11:14:43;;;;;;;7.43;3.67;;;;;;;21.53;66.53;102367.81;5070414;28;20108;-71
2022/07/11 11:17:34;;;;;;;6.40;3.63;;;;;;;21.98;63.72;102375.53;5069573;28;20028;-70
2022/07/11 11:19:59;;;;;;;4.72;2.97;;;;;;;22.15;63.18;102366.50;5080036;28;20049;-71
2022/07/11 11:22:25;;;;;;;3.55;2.90;;;;;;;22.46;62.45;102366.22;5071676;28;20043;-71
2022/07/11 11:24:53;;;;;;;6.65;2.92;;;;;;;22.70;58.99;102364.81;5069900;28;20082;-70
2022/07/11 11:27:23;;;;;;;4.38;2.70;;;;;;;22.63;59.16;102362.66;5073696;28;20146;-70